sensor_id;sensor_type;location;lat;lon;timestamp;temperature;humidity
58153;DHT22;43967;51.634;5.566;2023-07-31T00:04:56;22.60;67.30
58153;DHT22;43967;51.634;5.566;2023-07-31T00:10:18;22.60;67.40
58153;DHT22;43967;51.634;5.566;2023-07-31T00:15:39;22.60;67.40
58153;DHT22;43967;51.634;5.566;2023-07-31T00:21:00;22.60;67.40
58153;DHT22;43967;51.634;5.566;2023-07-31T00:26:21;22.60;67.30
58153;DHT22;43967;51.634;5.566;2023-07-31T00:31:43;22.60;67.30
58153;DHT22;43967;51.634;5.566;2023-07-31T00:37:04;22.60;67.40
58153;DHT22;43967;51.634;5.566;2023-07-31T00:42:26;22.60;67.40
58153;DHT22;43967;51.634;5.566;2023-07-31T00:47:47;22.50;67.30
58153;DHT22;43967;51.634;5.566;2023-07-31T00:53:08;22.50;67.40
58153;DHT22;43967;51.634;5.566;2023-07-31T00:58:30;22.50;67.40
58153;DHT22;43967;51.634;5.566;2023-07-31T01:03:53;22.50;67.40
58153;DHT22;43967;51.634;5.566;2023-07-31T01:09:47;22.50;67.50
58153;DHT22;43967;51.634;5.566;2023-07-31T01:15:10;22.50;67.40
58153;DHT22;43967;51.634;5.566;2023-07-31T01:20:33;22.50;67.40
58153;DHT22;43967;51.634;5.566;2023-07-31T01:26:11;22.50;67.40
58153;DHT22;43967;51.634;5.566;2023-07-31T01:31:33;22.50;67.50
58153;DHT22;43967;51.634;5.566;2023-07-31T01:36:56;22.50;67.50
58153;DHT22;43967;51.634;5.566;2023-07-31T01:42:17;22.50;67.50
58153;DHT22;43967;51.634;5.566;2023-07-31T01:47:38;22.50;67.50
58153;DHT22;43967;51.634;5.566;2023-07-31T01:53:00;22.50;67.50
58153;DHT22;43967;51.634;5.566;2023-07-31T01:58:21;22.50;67.50
58153;DHT22;43967;51.634;5.566;2023-07-31T02:03:42;22.50;67.50
58153;DHT22;43967;51.634;5.566;2023-07-31T02:09:04;22.50;67.50
58153;DHT22;43967;51.634;5.566;2023-07-31T02:14:25;22.40;67.50
58153;DHT22;43967;51.634;5.566;2023-07-31T02:19:46;22.40;67.50
58153;DHT22;43967;51.634;5.566;2023-07-31T02:25:08;22.50;67.50
58153;DHT22;43967;51.634;5.566;2023-07-31T02:30:29;22.40;67.50
58153;DHT22;43967;51.634;5.566;2023-07-31T02:35:50;22.40;67.50
58153;DHT22;43967;51.634;5.566;2023-07-31T02:41:11;22.40;67.50
58153;DHT22;43967;51.634;5.566;2023-07-31T02:46:33;22.40;67.50
58153;DHT22;43967;51.634;5.566;2023-07-31T02:51:54;22.40;67.50
58153;DHT22;43967;51.634;5.566;2023-07-31T02:57:15;22.40;67.50
58153;DHT22;43967;51.634;5.566;2023-07-31T03:02:37;22.40;67.60
58153;DHT22;43967;51.634;5.566;2023-07-31T03:07:58;22.40;67.50
58153;DHT22;43967;51.634;5.566;2023-07-31T03:13:19;22.40;67.50
58153;DHT22;43967;51.634;5.566;2023-07-31T03:18:40;22.40;67.50
58153;DHT22;43967;51.634;5.566;2023-07-31T03:24:02;22.40;67.50
58153;DHT22;43967;51.634;5.566;2023-07-31T03:29:23;22.40;67.50
58153;DHT22;43967;51.634;5.566;2023-07-31T03:34:44;22.40;67.50
58153;DHT22;43967;51.634;5.566;2023-07-31T03:40:06;22.40;67.50
58153;DHT22;43967;51.634;5.566;2023-07-31T03:45:27;22.40;67.50
58153;DHT22;43967;51.634;5.566;2023-07-31T03:50:49;22.40;67.50
58153;DHT22;43967;51.634;5.566;2023-07-31T03:56:10;22.40;67.50
58153;DHT22;43967;51.634;5.566;2023-07-31T04:01:32;22.30;67.40
58153;DHT22;43967;51.634;5.566;2023-07-31T04:06:53;22.30;67.40
58153;DHT22;43967;51.634;5.566;2023-07-31T04:12:14;22.30;67.40
58153;DHT22;43967;51.634;5.566;2023-07-31T04:17:35;22.30;67.40
58153;DHT22;43967;51.634;5.566;2023-07-31T04:22:57;22.30;67.40
58153;DHT22;43967;51.634;5.566;2023-07-31T04:28:18;22.30;67.40
58153;DHT22;43967;51.634;5.566;2023-07-31T04:33:39;22.30;67.40
58153;DHT22;43967;51.634;5.566;2023-07-31T04:39:01;22.30;67.40
58153;DHT22;43967;51.634;5.566;2023-07-31T04:44:22;22.30;67.40
58153;DHT22;43967;51.634;5.566;2023-07-31T04:49:43;22.30;67.40
58153;DHT22;43967;51.634;5.566;2023-07-31T04:55:05;22.30;67.50
58153;DHT22;43967;51.634;5.566;2023-07-31T05:00:26;22.30;67.40
58153;DHT22;43967;51.634;5.566;2023-07-31T05:05:47;22.30;67.50
58153;DHT22;43967;51.634;5.566;2023-07-31T05:11:09;22.30;67.50
58153;DHT22;43967;51.634;5.566;2023-07-31T05:16:30;22.30;67.50
58153;DHT22;43967;51.634;5.566;2023-07-31T05:21:51;22.30;67.50
58153;DHT22;43967;51.634;5.566;2023-07-31T05:27:12;22.30;67.50
58153;DHT22;43967;51.634;5.566;2023-07-31T05:32:34;22.30;67.50
58153;DHT22;43967;51.634;5.566;2023-07-31T05:37:55;22.30;67.80
58153;DHT22;43967;51.634;5.566;2023-07-31T05:43:17;22.20;68.00
58153;DHT22;43967;51.634;5.566;2023-07-31T05:48:38;22.20;68.30
58153;DHT22;43967;51.634;5.566;2023-07-31T05:53:59;22.20;68.30
58153;DHT22;43967;51.634;5.566;2023-07-31T05:59:20;22.20;68.50
58153;DHT22;43967;51.634;5.566;2023-07-31T06:04:42;22.20;68.30
58153;DHT22;43967;51.634;5.566;2023-07-31T06:10:03;22.20;68.10
58153;DHT22;43967;51.634;5.566;2023-07-31T06:15:25;22.20;68.40
58153;DHT22;43967;51.634;5.566;2023-07-31T06:20:46;22.10;68.60
58153;DHT22;43967;51.634;5.566;2023-07-31T06:26:07;22.10;68.70
58153;DHT22;43967;51.634;5.566;2023-07-31T06:31:29;22.20;68.60
58153;DHT22;43967;51.634;5.566;2023-07-31T06:36:50;22.20;69.20
58153;DHT22;43967;51.634;5.566;2023-07-31T06:42:11;22.20;69.70
58153;DHT22;43967;51.634;5.566;2023-07-31T06:47:32;22.20;69.80
58153;DHT22;43967;51.634;5.566;2023-07-31T06:52:54;22.30;70.00
58153;DHT22;43967;51.634;5.566;2023-07-31T06:58:15;22.30;70.20
58153;DHT22;43967;51.634;5.566;2023-07-31T07:03:36;22.30;70.20
58153;DHT22;43967;51.634;5.566;2023-07-31T07:08:58;22.30;70.40
58153;DHT22;43967;51.634;5.566;2023-07-31T07:14:19;22.30;70.40
58153;DHT22;43967;51.634;5.566;2023-07-31T07:19:40;22.30;70.70
58153;DHT22;43967;51.634;5.566;2023-07-31T07:25:03;22.40;70.90
58153;DHT22;43967;51.634;5.566;2023-07-31T07:30:24;22.40;71.20
58153;DHT22;43967;51.634;5.566;2023-07-31T07:35:46;22.40;71.70
58153;DHT22;43967;51.634;5.566;2023-07-31T07:41:07;22.40;71.80
58153;DHT22;43967;51.634;5.566;2023-07-31T07:46:28;22.40;71.70
58153;DHT22;43967;51.634;5.566;2023-07-31T07:51:50;22.40;71.80
58153;DHT22;43967;51.634;5.566;2023-07-31T07:57:11;22.40;71.90
58153;DHT22;43967;51.634;5.566;2023-07-31T08:02:32;22.50;72.40
58153;DHT22;43967;51.634;5.566;2023-07-31T08:07:53;22.50;72.00
58153;DHT22;43967;51.634;5.566;2023-07-31T08:13:15;22.50;71.80
58153;DHT22;43967;51.634;5.566;2023-07-31T08:18:36;22.50;71.50
58153;DHT22;43967;51.634;5.566;2023-07-31T08:23:57;22.50;71.90
58153;DHT22;43967;51.634;5.566;2023-07-31T08:29:18;22.50;71.80
58153;DHT22;43967;51.634;5.566;2023-07-31T08:34:40;22.20;73.40
58153;DHT22;43967;51.634;5.566;2023-07-31T08:40:01;22.30;73.30
58153;DHT22;43967;51.634;5.566;2023-07-31T08:45:23;22.40;72.90
58153;DHT22;43967;51.634;5.566;2023-07-31T08:50:44;22.40;73.10
58153;DHT22;43967;51.634;5.566;2023-07-31T08:56:06;22.10;73.90
58153;DHT22;43967;51.634;5.566;2023-07-31T09:01:29;21.80;74.90
58153;DHT22;43967;51.634;5.566;2023-07-31T09:06:54;21.70;76.00
58153;DHT22;43967;51.634;5.566;2023-07-31T09:12:18;21.60;76.30
58153;DHT22;43967;51.634;5.566;2023-07-31T09:17:40;21.50;76.80
58153;DHT22;43967;51.634;5.566;2023-07-31T09:23:08;21.50;76.70
58153;DHT22;43967;51.634;5.566;2023-07-31T09:28:31;21.40;76.90
58153;DHT22;43967;51.634;5.566;2023-07-31T09:33:55;21.50;76.60
58153;DHT22;43967;51.634;5.566;2023-07-31T09:39:17;21.70;75.90
58153;DHT22;43967;51.634;5.566;2023-07-31T09:44:40;21.80;75.70
58153;DHT22;43967;51.634;5.566;2023-07-31T09:50:07;21.80;75.50
58153;DHT22;43967;51.634;5.566;2023-07-31T09:55:29;21.90;75.30
58153;DHT22;43967;51.634;5.566;2023-07-31T10:00:51;21.90;75.10
58153;DHT22;43967;51.634;5.566;2023-07-31T10:06:13;22.00;75.00
58153;DHT22;43967;51.634;5.566;2023-07-31T10:11:42;22.00;75.10
58153;DHT22;43967;51.634;5.566;2023-07-31T10:17:05;22.10;75.00
58153;DHT22;43967;51.634;5.566;2023-07-31T10:22:27;22.10;74.80
58153;DHT22;43967;51.634;5.566;2023-07-31T10:27:49;22.10;74.70
58153;DHT22;43967;51.634;5.566;2023-07-31T10:33:11;22.10;74.60
58153;DHT22;43967;51.634;5.566;2023-07-31T10:38:33;22.20;74.80
58153;DHT22;43967;51.634;5.566;2023-07-31T10:43:59;22.20;74.90
58153;DHT22;43967;51.634;5.566;2023-07-31T10:49:21;22.20;74.90
58153;DHT22;43967;51.634;5.566;2023-07-31T10:54:42;22.20;74.10
58153;DHT22;43967;51.634;5.566;2023-07-31T11:00:25;22.20;74.30
58153;DHT22;43967;51.634;5.566;2023-07-31T11:11:21;22.30;74.20
58153;DHT22;43967;51.634;5.566;2023-07-31T11:16:42;22.30;74.00
58153;DHT22;43967;51.634;5.566;2023-07-31T11:22:03;22.30;73.80
58153;DHT22;43967;51.634;5.566;2023-07-31T11:27:28;22.40;73.50
58153;DHT22;43967;51.634;5.566;2023-07-31T11:32:49;22.40;73.30
58153;DHT22;43967;51.634;5.566;2023-07-31T11:38:24;22.40;73.10
58153;DHT22;43967;51.634;5.566;2023-07-31T11:43:46;22.40;73.10
58153;DHT22;43967;51.634;5.566;2023-07-31T11:49:08;22.40;72.90
58153;DHT22;43967;51.634;5.566;2023-07-31T11:54:29;22.40;73.00
58153;DHT22;43967;51.634;5.566;2023-07-31T11:59:51;22.40;72.70
58153;DHT22;43967;51.634;5.566;2023-07-31T12:05:14;22.40;72.70
58153;DHT22;43967;51.634;5.566;2023-07-31T12:10:35;22.40;72.60
58153;DHT22;43967;51.634;5.566;2023-07-31T12:15:58;22.40;72.60
58153;DHT22;43967;51.634;5.566;2023-07-31T12:21:20;22.40;72.40
58153;DHT22;43967;51.634;5.566;2023-07-31T12:26:45;22.40;72.50
58153;DHT22;43967;51.634;5.566;2023-07-31T12:32:25;22.40;72.30
58153;DHT22;43967;51.634;5.566;2023-07-31T12:37:47;22.40;72.50
58153;DHT22;43967;51.634;5.566;2023-07-31T12:43:08;22.40;72.70
58153;DHT22;43967;51.634;5.566;2023-07-31T12:48:29;22.40;72.90
58153;DHT22;43967;51.634;5.566;2023-07-31T12:53:51;22.40;73.00
58153;DHT22;43967;51.634;5.566;2023-07-31T12:59:12;22.50;73.00
58153;DHT22;43967;51.634;5.566;2023-07-31T13:04:33;22.40;73.10
58153;DHT22;43967;51.634;5.566;2023-07-31T13:09:54;22.50;73.30
58153;DHT22;43967;51.634;5.566;2023-07-31T13:15:16;22.50;73.40
58153;DHT22;43967;51.634;5.566;2023-07-31T13:20:37;22.50;73.50
58153;DHT22;43967;51.634;5.566;2023-07-31T13:25:58;22.40;73.60
58153;DHT22;43967;51.634;5.566;2023-07-31T13:31:20;22.50;73.70
58153;DHT22;43967;51.634;5.566;2023-07-31T13:36:41;22.50;73.70
58153;DHT22;43967;51.634;5.566;2023-07-31T13:42:07;22.50;73.70
58153;DHT22;43967;51.634;5.566;2023-07-31T13:47:28;22.50;73.70
58153;DHT22;43967;51.634;5.566;2023-07-31T13:52:49;22.50;73.80
58153;DHT22;43967;51.634;5.566;2023-07-31T13:58:10;22.50;73.80
58153;DHT22;43967;51.634;5.566;2023-07-31T14:03:32;22.50;73.80
58153;DHT22;43967;51.634;5.566;2023-07-31T14:08:53;22.50;73.90
58153;DHT22;43967;51.634;5.566;2023-07-31T14:14:14;22.50;73.70
58153;DHT22;43967;51.634;5.566;2023-07-31T14:19:36;22.50;73.80
58153;DHT22;43967;51.634;5.566;2023-07-31T14:24:57;22.60;73.90
58153;DHT22;43967;51.634;5.566;2023-07-31T14:30:18;22.50;74.00
58153;DHT22;43967;51.634;5.566;2023-07-31T14:35:39;22.50;73.90
58153;DHT22;43967;51.634;5.566;2023-07-31T14:41:01;22.50;73.90
58153;DHT22;43967;51.634;5.566;2023-07-31T14:46:22;22.50;73.80
58153;DHT22;43967;51.634;5.566;2023-07-31T14:51:43;22.60;74.30
58153;DHT22;43967;51.634;5.566;2023-07-31T14:57:05;22.60;74.40
58153;DHT22;43967;51.634;5.566;2023-07-31T15:02:26;22.60;74.70
58153;DHT22;43967;51.634;5.566;2023-07-31T15:07:48;22.60;74.60
58153;DHT22;43967;51.634;5.566;2023-07-31T15:13:09;22.60;75.10
58153;DHT22;43967;51.634;5.566;2023-07-31T15:18:30;22.60;75.50
58153;DHT22;43967;51.634;5.566;2023-07-31T15:23:52;22.60;74.80
58153;DHT22;43967;51.634;5.566;2023-07-31T15:29:13;22.60;75.00
58153;DHT22;43967;51.634;5.566;2023-07-31T15:34:35;22.60;75.30
58153;DHT22;43967;51.634;5.566;2023-07-31T15:39:56;22.60;75.20
58153;DHT22;43967;51.634;5.566;2023-07-31T15:45:17;22.60;75.90
58153;DHT22;43967;51.634;5.566;2023-07-31T15:50:38;22.60;75.20
58153;DHT22;43967;51.634;5.566;2023-07-31T15:56:00;22.60;75.30
58153;DHT22;43967;51.634;5.566;2023-07-31T16:01:21;22.60;75.60
58153;DHT22;43967;51.634;5.566;2023-07-31T16:06:42;22.50;74.90
58153;DHT22;43967;51.634;5.566;2023-07-31T16:12:04;22.50;75.90
58153;DHT22;43967;51.634;5.566;2023-07-31T16:17:25;22.60;76.50
58153;DHT22;43967;51.634;5.566;2023-07-31T16:22:48;22.60;76.70
58153;DHT22;43967;51.634;5.566;2023-07-31T16:28:10;22.60;77.00
58153;DHT22;43967;51.634;5.566;2023-07-31T16:33:31;22.60;77.20
58153;DHT22;43967;51.634;5.566;2023-07-31T16:38:52;22.60;77.20
58153;DHT22;43967;51.634;5.566;2023-07-31T16:44:14;22.60;77.30
58153;DHT22;43967;51.634;5.566;2023-07-31T16:49:35;22.60;77.10
58153;DHT22;43967;51.634;5.566;2023-07-31T16:54:57;22.60;77.20
58153;DHT22;43967;51.634;5.566;2023-07-31T17:00:18;22.60;77.20
58153;DHT22;43967;51.634;5.566;2023-07-31T17:05:39;22.60;76.80
58153;DHT22;43967;51.634;5.566;2023-07-31T17:11:00;22.60;76.50
58153;DHT22;43967;51.634;5.566;2023-07-31T17:16:22;22.60;76.40
58153;DHT22;43967;51.634;5.566;2023-07-31T17:21:43;22.60;77.20
58153;DHT22;43967;51.634;5.566;2023-07-31T17:27:04;22.60;77.10
58153;DHT22;43967;51.634;5.566;2023-07-31T17:32:26;22.60;77.00
58153;DHT22;43967;51.634;5.566;2023-07-31T17:37:47;22.60;77.00
58153;DHT22;43967;51.634;5.566;2023-07-31T17:43:08;22.60;77.20
58153;DHT22;43967;51.634;5.566;2023-07-31T17:48:31;22.60;77.00
58153;DHT22;43967;51.634;5.566;2023-07-31T17:53:52;22.60;77.30
58153;DHT22;43967;51.634;5.566;2023-07-31T17:59:13;22.60;77.40
58153;DHT22;43967;51.634;5.566;2023-07-31T18:04:35;22.60;77.30
58153;DHT22;43967;51.634;5.566;2023-07-31T18:09:56;22.60;77.30
58153;DHT22;43967;51.634;5.566;2023-07-31T18:15:17;22.60;77.10
58153;DHT22;43967;51.634;5.566;2023-07-31T18:20:39;22.60;77.30
58153;DHT22;43967;51.634;5.566;2023-07-31T18:26:00;22.60;77.20
58153;DHT22;43967;51.634;5.566;2023-07-31T18:31:21;22.60;76.90
58153;DHT22;43967;51.634;5.566;2023-07-31T18:36:43;22.60;76.60
58153;DHT22;43967;51.634;5.566;2023-07-31T18:42:04;22.60;76.40
58153;DHT22;43967;51.634;5.566;2023-07-31T18:47:25;22.50;76.50
58153;DHT22;43967;51.634;5.566;2023-07-31T18:52:47;22.50;76.70
58153;DHT22;43967;51.634;5.566;2023-07-31T18:58:08;22.60;76.70
58153;DHT22;43967;51.634;5.566;2023-07-31T19:03:29;22.50;76.60
58153;DHT22;43967;51.634;5.566;2023-07-31T19:08:54;22.50;76.60
58153;DHT22;43967;51.634;5.566;2023-07-31T19:14:15;22.60;76.70
58153;DHT22;43967;51.634;5.566;2023-07-31T19:19:36;22.60;76.50
58153;DHT22;43967;51.634;5.566;2023-07-31T19:24:58;22.50;76.20
58153;DHT22;43967;51.634;5.566;2023-07-31T19:30:19;22.60;76.00
58153;DHT22;43967;51.634;5.566;2023-07-31T19:35:40;22.60;75.90
58153;DHT22;43967;51.634;5.566;2023-07-31T19:41:02;22.60;75.80
58153;DHT22;43967;51.634;5.566;2023-07-31T19:46:23;22.50;75.60
58153;DHT22;43967;51.634;5.566;2023-07-31T19:51:44;22.50;75.40
58153;DHT22;43967;51.634;5.566;2023-07-31T19:57:06;22.50;75.20
58153;DHT22;43967;51.634;5.566;2023-07-31T20:02:27;22.50;75.20
58153;DHT22;43967;51.634;5.566;2023-07-31T20:07:48;22.50;75.00
58153;DHT22;43967;51.634;5.566;2023-07-31T20:13:10;22.50;74.90
58153;DHT22;43967;51.634;5.566;2023-07-31T20:18:31;22.50;74.80
58153;DHT22;43967;51.634;5.566;2023-07-31T20:23:52;22.50;74.70
58153;DHT22;43967;51.634;5.566;2023-07-31T20:29:13;22.50;74.50
58153;DHT22;43967;51.634;5.566;2023-07-31T20:34:35;22.40;74.50
58153;DHT22;43967;51.634;5.566;2023-07-31T20:39:58;22.40;74.40
58153;DHT22;43967;51.634;5.566;2023-07-31T20:45:21;22.40;74.30
58153;DHT22;43967;51.634;5.566;2023-07-31T20:50:42;22.40;74.30
58153;DHT22;43967;51.634;5.566;2023-07-31T20:56:03;22.40;74.20
58153;DHT22;43967;51.634;5.566;2023-07-31T21:01:25;22.40;74.10
58153;DHT22;43967;51.634;5.566;2023-07-31T21:06:46;22.40;74.80
58153;DHT22;43967;51.634;5.566;2023-07-31T21:12:07;22.40;74.10
58153;DHT22;43967;51.634;5.566;2023-07-31T21:17:29;22.40;74.00
58153;DHT22;43967;51.634;5.566;2023-07-31T21:22:50;22.40;73.90
58153;DHT22;43967;51.634;5.566;2023-07-31T21:28:11;22.40;73.90
58153;DHT22;43967;51.634;5.566;2023-07-31T21:33:32;22.40;73.80
58153;DHT22;43967;51.634;5.566;2023-07-31T21:38:54;22.40;73.80
58153;DHT22;43967;51.634;5.566;2023-07-31T21:44:15;22.30;73.70
58153;DHT22;43967;51.634;5.566;2023-07-31T21:49:36;22.30;73.70
58153;DHT22;43967;51.634;5.566;2023-07-31T21:54:57;22.30;73.60
58153;DHT22;43967;51.634;5.566;2023-07-31T22:00:20;22.30;73.60
58153;DHT22;43967;51.634;5.566;2023-07-31T22:05:41;22.30;73.50
58153;DHT22;43967;51.634;5.566;2023-07-31T22:11:03;22.30;73.50
58153;DHT22;43967;51.634;5.566;2023-07-31T22:16:24;22.30;73.50
58153;DHT22;43967;51.634;5.566;2023-07-31T22:21:45;22.30;73.40
58153;DHT22;43967;51.634;5.566;2023-07-31T22:27:07;22.30;73.30
58153;DHT22;43967;51.634;5.566;2023-07-31T22:32:28;22.30;73.40
58153;DHT22;43967;51.634;5.566;2023-07-31T22:37:49;22.30;73.40
58153;DHT22;43967;51.634;5.566;2023-07-31T22:43:11;22.30;73.30
58153;DHT22;43967;51.634;5.566;2023-07-31T22:48:32;22.30;73.20
58153;DHT22;43967;51.634;5.566;2023-07-31T22:53:53;22.30;73.20
58153;DHT22;43967;51.634;5.566;2023-07-31T22:59:14;22.30;73.10
58153;DHT22;43967;51.634;5.566;2023-07-31T23:04:37;22.30;73.10
58153;DHT22;43967;51.634;5.566;2023-07-31T23:09:59;22.30;73.10
58153;DHT22;43967;51.634;5.566;2023-07-31T23:15:20;22.30;73.10
58153;DHT22;43967;51.634;5.566;2023-07-31T23:20:47;22.20;73.00
58153;DHT22;43967;51.634;5.566;2023-07-31T23:26:09;22.20;72.90
58153;DHT22;43967;51.634;5.566;2023-07-31T23:31:30;22.20;72.90
58153;DHT22;43967;51.634;5.566;2023-07-31T23:36:51;22.20;72.90
58153;DHT22;43967;51.634;5.566;2023-07-31T23:42:13;22.20;72.90
58153;DHT22;43967;51.634;5.566;2023-07-31T23:47:34;22.20;72.90
58153;DHT22;43967;51.634;5.566;2023-07-31T23:52:55;22.20;72.80
58153;DHT22;43967;51.634;5.566;2023-07-31T23:58:17;22.20;72.80
